sensor_id;sensor_type;location;lat;lon;timestamp;P1;durP1;ratioP1;P2;durP2;ratioP2
54917;SDS011;40818;50.562;7.454;2023-03-19T00:04:18;1.20;;;0.25;;
54917;SDS011;40818;50.562;7.454;2023-03-19T00:14:26;1.48;;;0.30;;
54917;SDS011;40818;50.562;7.454;2023-03-19T00:24:29;4.18;;;0.30;;
54917;SDS011;40818;50.562;7.454;2023-03-19T00:34:36;1.45;;;0.28;;
54917;SDS011;40818;50.562;7.454;2023-03-19T00:44:40;1.65;;;0.30;;
54917;SDS011;40818;50.562;7.454;2023-03-19T00:54:46;1.45;;;0.20;;
54917;SDS011;40818;50.562;7.454;2023-03-19T01:04:50;2.17;;;0.30;;
54917;SDS011;40818;50.562;7.454;2023-03-19T01:14:56;3.90;;;0.40;;
54917;SDS011;40818;50.562;7.454;2023-03-19T01:25:00;1.65;;;0.30;;
54917;SDS011;40818;50.562;7.454;2023-03-19T01:35:07;0.95;;;0.28;;
54917;SDS011;40818;50.562;7.454;2023-03-19T01:55:57;2.90;;;0.20;;
54917;SDS011;40818;50.562;7.454;2023-03-19T02:06:31;1.63;;;0.30;;
54917;SDS011;40818;50.562;7.454;2023-03-19T02:16:39;2.78;;;0.30;;
54917;SDS011;40818;50.562;7.454;2023-03-19T02:26:45;3.45;;;0.30;;
54917;SDS011;40818;50.562;7.454;2023-03-19T02:36:51;2.58;;;0.77;;
54917;SDS011;40818;50.562;7.454;2023-03-19T02:47:00;8.05;;;0.40;;
54917;SDS011;40818;50.562;7.454;2023-03-19T02:57:04;4.15;;;0.55;;
54917;SDS011;40818;50.562;7.454;2023-03-19T03:07:10;8.18;;;0.50;;
54917;SDS011;40818;50.562;7.454;2023-03-19T03:17:14;3.40;;;0.80;;
54917;SDS011;40818;50.562;7.454;2023-03-19T03:27:20;4.30;;;0.30;;
54917;SDS011;40818;50.562;7.454;2023-03-19T03:37:24;5.68;;;0.40;;
54917;SDS011;40818;50.562;7.454;2023-03-19T03:47:30;2.88;;;0.43;;
54917;SDS011;40818;50.562;7.454;2023-03-19T03:57:34;4.32;;;0.47;;
54917;SDS011;40818;50.562;7.454;2023-03-19T04:07:41;3.38;;;0.40;;
54917;SDS011;40818;50.562;7.454;2023-03-19T04:17:45;2.33;;;0.40;;
54917;SDS011;40818;50.562;7.454;2023-03-19T04:27:53;2.50;;;0.40;;
54917;SDS011;40818;50.562;7.454;2023-03-19T04:38:01;4.05;;;0.47;;
54917;SDS011;40818;50.562;7.454;2023-03-19T04:48:08;2.42;;;0.40;;
54917;SDS011;40818;50.562;7.454;2023-03-19T04:58:13;4.63;;;0.40;;
54917;SDS011;40818;50.562;7.454;2023-03-19T05:08:21;3.05;;;0.43;;
54917;SDS011;40818;50.562;7.454;2023-03-19T05:18:25;2.70;;;0.32;;
54917;SDS011;40818;50.562;7.454;2023-03-19T05:28:31;1.77;;;0.40;;
54917;SDS011;40818;50.562;7.454;2023-03-19T05:38:36;2.25;;;0.30;;
54917;SDS011;40818;50.562;7.454;2023-03-19T05:48:47;5.10;;;0.40;;
54917;SDS011;40818;50.562;7.454;2023-03-19T05:58:51;2.58;;;0.47;;
54917;SDS011;40818;50.562;7.454;2023-03-19T06:09:02;2.53;;;0.40;;
54917;SDS011;40818;50.562;7.454;2023-03-19T06:19:15;2.45;;;0.40;;
54917;SDS011;40818;50.562;7.454;2023-03-19T06:29:21;1.40;;;0.30;;
54917;SDS011;40818;50.562;7.454;2023-03-19T06:39:31;1.75;;;0.40;;
54917;SDS011;40818;50.562;7.454;2023-03-19T06:49:37;2.08;;;0.40;;
54917;SDS011;40818;50.562;7.454;2023-03-19T06:59:41;2.40;;;0.50;;
54917;SDS011;40818;50.562;7.454;2023-03-19T07:09:47;4.43;;;0.40;;
54917;SDS011;40818;50.562;7.454;2023-03-19T07:19:51;2.80;;;0.30;;
54917;SDS011;40818;50.562;7.454;2023-03-19T07:29:57;2.55;;;0.40;;
54917;SDS011;40818;50.562;7.454;2023-03-19T07:40:00;2.05;;;0.30;;
54917;SDS011;40818;50.562;7.454;2023-03-19T07:50:07;1.67;;;0.32;;
54917;SDS011;40818;50.562;7.454;2023-03-19T08:00:12;1.45;;;0.30;;
54917;SDS011;40818;50.562;7.454;2023-03-19T08:10:20;2.40;;;0.40;;
54917;SDS011;40818;50.562;7.454;2023-03-19T08:20:24;1.75;;;0.40;;
54917;SDS011;40818;50.562;7.454;2023-03-19T08:30:30;1.88;;;0.40;;
54917;SDS011;40818;50.562;7.454;2023-03-19T08:40:34;2.05;;;0.40;;
54917;SDS011;40818;50.562;7.454;2023-03-19T08:50:40;1.45;;;0.30;;
54917;SDS011;40818;50.562;7.454;2023-03-19T09:00:43;2.75;;;0.50;;
54917;SDS011;40818;50.562;7.454;2023-03-19T09:10:49;2.08;;;0.38;;
54917;SDS011;40818;50.562;7.454;2023-03-19T09:20:56;1.38;;;0.40;;
54917;SDS011;40818;50.562;7.454;2023-03-19T09:31:02;1.33;;;0.43;;
54917;SDS011;40818;50.562;7.454;2023-03-19T09:41:08;4.63;;;0.50;;
54917;SDS011;40818;50.562;7.454;2023-03-19T09:51:20;1.40;;;0.30;;
54917;SDS011;40818;50.562;7.454;2023-03-19T10:01:29;1.42;;;0.40;;
54917;SDS011;40818;50.562;7.454;2023-03-19T10:11:44;1.20;;;0.40;;
54917;SDS011;40818;50.562;7.454;2023-03-19T10:21:56;1.10;;;0.35;;
54917;SDS011;40818;50.562;7.454;2023-03-19T10:32:10;4.95;;;0.50;;
54917;SDS011;40818;50.562;7.454;2023-03-19T10:42:25;1.50;;;0.40;;
54917;SDS011;40818;50.562;7.454;2023-03-19T10:52:43;1.25;;;0.30;;
54917;SDS011;40818;50.562;7.454;2023-03-19T11:02:52;2.20;;;0.30;;
54917;SDS011;40818;50.562;7.454;2023-03-19T11:13:02;1.23;;;0.30;;
54917;SDS011;40818;50.562;7.454;2023-03-19T11:23:10;2.05;;;0.30;;
54917;SDS011;40818;50.562;7.454;2023-03-19T11:33:23;0.82;;;0.25;;
54917;SDS011;40818;50.562;7.454;2023-03-19T11:43:45;2.90;;;0.30;;
54917;SDS011;40818;50.562;7.454;2023-03-19T11:54:02;0.55;;;0.20;;
54917;SDS011;40818;50.562;7.454;2023-03-19T12:04:20;0.85;;;0.20;;
54917;SDS011;40818;50.562;7.454;2023-03-19T12:14:44;0.55;;;0.20;;
54917;SDS011;40818;50.562;7.454;2023-03-19T12:24:59;2.85;;;0.20;;
54917;SDS011;40818;50.562;7.454;2023-03-19T12:35:15;0.88;;;0.28;;
54917;SDS011;40818;50.562;7.454;2023-03-19T12:45:25;0.85;;;0.20;;
54917;SDS011;40818;50.562;7.454;2023-03-19T12:55:38;1.05;;;0.17;;
54917;SDS011;40818;50.562;7.454;2023-03-19T13:05:45;0.50;;;0.10;;
54917;SDS011;40818;50.562;7.454;2023-03-19T13:15:58;0.82;;;0.20;;
54917;SDS011;40818;50.562;7.454;2023-03-19T13:26:09;0.55;;;0.15;;
54917;SDS011;40818;50.562;7.454;2023-03-19T13:36:17;1.15;;;0.20;;
54917;SDS011;40818;50.562;7.454;2023-03-19T14:07:20;1.35;;;0.20;;
54917;SDS011;40818;50.562;7.454;2023-03-19T14:17:29;1.25;;;0.10;;
54917;SDS011;40818;50.562;7.454;2023-03-19T14:27:35;1.48;;;0.20;;
54917;SDS011;40818;50.562;7.454;2023-03-19T14:37:43;1.58;;;0.30;;
54917;SDS011;40818;50.562;7.454;2023-03-19T14:58:08;0.88;;;0.20;;
54917;SDS011;40818;50.562;7.454;2023-03-19T15:08:13;0.90;;;0.20;;
54917;SDS011;40818;50.562;7.454;2023-03-19T15:18:25;0.75;;;0.20;;
54917;SDS011;40818;50.562;7.454;2023-03-19T15:28:29;0.57;;;0.10;;
54917;SDS011;40818;50.562;7.454;2023-03-19T15:38:37;0.82;;;0.20;;
54917;SDS011;40818;50.562;7.454;2023-03-19T15:48:46;0.30;;;0.10;;
54917;SDS011;40818;50.562;7.454;2023-03-19T15:58:56;0.70;;;0.10;;
54917;SDS011;40818;50.562;7.454;2023-03-19T16:09:12;0.68;;;0.10;;
54917;SDS011;40818;50.562;7.454;2023-03-19T16:19:31;1.65;;;0.20;;
54917;SDS011;40818;50.562;7.454;2023-03-19T16:29:37;4.45;;;0.20;;
54917;SDS011;40818;50.562;7.454;2023-03-19T16:39:52;0.70;;;0.20;;
54917;SDS011;40818;50.562;7.454;2023-03-19T16:49:56;0.50;;;0.20;;
54917;SDS011;40818;50.562;7.454;2023-03-19T17:00:03;0.70;;;0.20;;
54917;SDS011;40818;50.562;7.454;2023-03-19T17:10:08;0.25;;;0.10;;
54917;SDS011;40818;50.562;7.454;2023-03-19T17:20:18;1.52;;;0.22;;
54917;SDS011;40818;50.562;7.454;2023-03-19T17:30:24;1.42;;;0.30;;
54917;SDS011;40818;50.562;7.454;2023-03-19T17:40:30;1.33;;;0.30;;
54917;SDS011;40818;50.562;7.454;2023-03-19T17:50:33;0.77;;;0.20;;
54917;SDS011;40818;50.562;7.454;2023-03-19T18:00:39;0.90;;;0.30;;
54917;SDS011;40818;50.562;7.454;2023-03-19T18:10:43;1.45;;;0.40;;
54917;SDS011;40818;50.562;7.454;2023-03-19T18:20:49;1.98;;;0.50;;
54917;SDS011;40818;50.562;7.454;2023-03-19T18:30:53;1.38;;;0.30;;
54917;SDS011;40818;50.562;7.454;2023-03-19T18:40:59;0.90;;;0.20;;
54917;SDS011;40818;50.562;7.454;2023-03-19T18:51:03;3.42;;;1.00;;
54917;SDS011;40818;50.562;7.454;2023-03-19T19:01:10;2.53;;;0.50;;
54917;SDS011;40818;50.562;7.454;2023-03-19T19:11:17;0.60;;;0.20;;
54917;SDS011;40818;50.562;7.454;2023-03-19T19:21:24;1.83;;;0.70;;
54917;SDS011;40818;50.562;7.454;2023-03-19T19:31:28;2.08;;;0.60;;
54917;SDS011;40818;50.562;7.454;2023-03-19T19:41:37;1.00;;;0.30;;
54917;SDS011;40818;50.562;7.454;2023-03-19T19:51:42;4.63;;;1.27;;
54917;SDS011;40818;50.562;7.454;2023-03-19T20:01:49;1.63;;;0.40;;
54917;SDS011;40818;50.562;7.454;2023-03-19T20:11:52;0.90;;;0.30;;
54917;SDS011;40818;50.562;7.454;2023-03-19T20:21:58;5.15;;;4.40;;
54917;SDS011;40818;50.562;7.454;2023-03-19T20:32:02;1.02;;;0.40;;
54917;SDS011;40818;50.562;7.454;2023-03-19T20:42:09;1.98;;;0.60;;
54917;SDS011;40818;50.562;7.454;2023-03-19T20:52:16;2.50;;;0.80;;
54917;SDS011;40818;50.562;7.454;2023-03-19T21:02:22;4.70;;;0.90;;
54917;SDS011;40818;50.562;7.454;2023-03-19T21:12:28;5.13;;;0.95;;
54917;SDS011;40818;50.562;7.454;2023-03-19T21:22:35;2.53;;;0.85;;
54917;SDS011;40818;50.562;7.454;2023-03-19T21:32:39;3.40;;;1.30;;
54917;SDS011;40818;50.562;7.454;2023-03-19T21:42:45;3.45;;;1.40;;
54917;SDS011;40818;50.562;7.454;2023-03-19T21:52:51;4.32;;;1.92;;
54917;SDS011;40818;50.562;7.454;2023-03-19T22:02:57;7.53;;;4.15;;
54917;SDS011;40818;50.562;7.454;2023-03-19T22:13:01;7.40;;;3.15;;
54917;SDS011;40818;50.562;7.454;2023-03-19T22:23:07;5.20;;;2.40;;
54917;SDS011;40818;50.562;7.454;2023-03-19T22:33:12;15.95;;;4.43;;
54917;SDS011;40818;50.562;7.454;2023-03-19T22:43:21;10.95;;;5.35;;
54917;SDS011;40818;50.562;7.454;2023-03-19T22:53:31;10.52;;;6.38;;
54917;SDS011;40818;50.562;7.454;2023-03-19T23:03:38;19.35;;;9.93;;
54917;SDS011;40818;50.562;7.454;2023-03-19T23:13:42;30.63;;;12.95;;
54917;SDS011;40818;50.562;7.454;2023-03-19T23:23:49;27.13;;;14.35;;
54917;SDS011;40818;50.562;7.454;2023-03-19T23:33:52;40.67;;;19.60;;
54917;SDS011;40818;50.562;7.454;2023-03-19T23:43:59;53.70;;;22.73;;
54917;SDS011;40818;50.562;7.454;2023-03-19T23:54:09;45.53;;;21.70;;
